« Back
NWS Peachtree City, Ga » Text Product » CSG Terminal Aerodrome Forecast


Printer-friendly Version
Current Version              Previous Versions:   1  2  3  4  5  6  7  8  9  

Terminal Aerodrome Forecast

504
FTUS42 KFFC 291721
TAFCSG
TAF
KCSG 291721Z 2918/3018 34008KT P6SM SCT050
     FM300200 VRB03KT P6SM SKC
     FM301500 34005KT P6SM SKC=

USA.gov is the U.S. government's official web portal to all federal, state and local government web resources and services.